createdAt,value
2023-05-23T00:01:31.694Z,99284.81
2023-05-23T00:06:34.482Z,99289.41
2023-05-23T00:11:37.429Z,99286.44
2023-05-23T00:16:44.204Z,99285.44
2023-05-23T00:21:50.967Z,99303.75
2023-05-23T00:26:52.745Z,99311.59
2023-05-23T00:31:54.487Z,99312.31
2023-05-23T00:36:56.204Z,99297.75
2023-05-23T00:41:58.019Z,99309.47
2023-05-23T00:47:01.014Z,99299.25
2023-05-23T00:52:03.684Z,99301.88
2023-05-23T00:57:05.652Z,99295.81
2023-05-23T01:02:07.599Z,99296.38
2023-05-23T01:07:10.313Z,99299.03
2023-05-23T01:12:29.856Z,99313.50
2023-05-23T01:17:53.673Z,99321.38
2023-05-23T01:23:01.168Z,99318.28
2023-05-23T01:28:06.852Z,99324.88
2023-05-23T01:33:11.858Z,99331.41
2023-05-23T01:38:13.664Z,99335.56
2023-05-23T01:43:15.756Z,99328.81
2023-05-23T01:48:18.653Z,99320.56
2023-05-23T01:53:23.012Z,99319.88
2023-05-23T01:58:24.879Z,99310.78
2023-05-23T02:03:26.899Z,99311.16
2023-05-23T02:08:29.352Z,99308.13
2023-05-23T02:13:31.254Z,99296.66
2023-05-23T02:18:32.965Z,99291.25
2023-05-23T02:23:34.648Z,99288.34
2023-05-23T02:28:36.548Z,99284.66
2023-05-23T02:33:38.241Z,99271.09
2023-05-23T02:38:39.923Z,99270.59
2023-05-23T02:43:41.722Z,99261.38
2023-05-23T02:48:43.540Z,99253.44
2023-05-23T02:53:46.853Z,99241.84
2023-05-23T02:58:48.533Z,99232.66
2023-05-23T03:03:50.361Z,99223.94
2023-05-23T03:08:52.222Z,99212.25
2023-05-23T03:13:54.042Z,99211.25
2023-05-23T03:18:56.008Z,99217.91
2023-05-23T03:23:57.974Z,99222.69
2023-05-23T03:28:59.786Z,99210.81
2023-05-23T03:34:01.687Z,99216.09
2023-05-23T03:39:03.522Z,99224.78
2023-05-23T03:44:05.702Z,99208.94
2023-05-23T03:49:07.513Z,99220.44
2023-05-23T03:54:10.380Z,99220.22
2023-05-23T03:59:12.592Z,99234.91
2023-05-23T04:04:14.455Z,99240.84
2023-05-23T04:09:16.378Z,99256.00
2023-05-23T04:14:22.646Z,99251.81
2023-05-23T04:19:25.612Z,99242.97
2023-05-23T04:24:27.895Z,99253.88
2023-05-23T04:29:31.753Z,99267.91
2023-05-23T04:34:34.310Z,99266.50
2023-05-23T04:39:36.915Z,99281.47
2023-05-23T04:44:58.764Z,99283.13
2023-05-23T04:50:24.109Z,99271.16
2023-05-23T04:55:26.529Z,99281.16
2023-05-23T05:00:28.451Z,99273.94
2023-05-23T05:05:30.231Z,99267.97
2023-05-23T05:10:31.993Z,99279.91
2023-05-23T05:15:34.443Z,99271.75
2023-05-23T05:20:37.349Z,99282.75
2023-05-23T05:25:39.245Z,99280.03
2023-05-23T05:30:42.385Z,99286.44
2023-05-23T05:35:45.474Z,99288.91
2023-05-23T05:40:47.282Z,99284.13
2023-05-23T05:45:50.372Z,99290.13
2023-05-23T05:50:52.209Z,99284.69
2023-05-23T05:55:55.146Z,99298.91
2023-05-23T06:00:59.294Z,99297.91
2023-05-23T06:06:01.339Z,99302.50
2023-05-23T06:11:03.365Z,99298.94
2023-05-23T06:16:06.814Z,99311.75
2023-05-23T06:21:09.367Z,99316.09
2023-05-23T06:26:12.684Z,99317.31
2023-05-23T06:31:14.380Z,99324.41
2023-05-23T06:36:16.056Z,99315.75
2023-05-23T06:41:17.777Z,99319.03
2023-05-23T06:46:19.734Z,99331.91
2023-05-23T06:51:21.778Z,99339.03
2023-05-23T06:56:23.992Z,99345.78
2023-05-23T07:01:31.094Z,99341.78
2023-05-23T07:06:33.249Z,99342.03
2023-05-23T07:11:36.139Z,99346.97
2023-05-23T07:16:39.648Z,99342.03
2023-05-23T07:21:42.825Z,99348.53
2023-05-23T07:26:45.166Z,99344.03
2023-05-23T07:31:46.987Z,99351.63
2023-05-23T07:36:50.362Z,99353.28
2023-05-23T07:41:53.430Z,99342.38
2023-05-23T07:46:55.492Z,99350.91
2023-05-23T07:51:58.575Z,99348.91
2023-05-23T07:57:01.606Z,99345.59
2023-05-23T08:02:04.285Z,99364.44
2023-05-23T08:07:07.993Z,99357.97
2023-05-23T08:12:19.512Z,99357.78
2023-05-23T08:17:25.327Z,99359.94
2023-05-23T08:22:28.032Z,99359.66
2023-05-23T08:27:30.429Z,99360.03
2023-05-23T08:32:37.249Z,99371.63
2023-05-23T08:37:39.665Z,99373.53
2023-05-23T08:42:41.385Z,99381.91
2023-05-23T08:47:45.933Z,99393.25
2023-05-23T08:53:00.254Z,99391.19
2023-05-23T08:58:04.131Z,99397.00
2023-05-23T09:03:19.816Z,99392.91
2023-05-23T09:08:32.113Z,99399.28
2023-05-23T09:13:34.953Z,99402.41
2023-05-23T09:18:42.522Z,99410.75
2023-05-23T09:23:46.158Z,99412.38
2023-05-23T09:28:48.835Z,99411.59
2023-05-23T09:33:51.022Z,99416.31
2023-05-23T09:38:55.126Z,99439.00
2023-05-23T09:43:57.895Z,99440.88
2023-05-23T09:49:00.351Z,99443.84
2023-05-23T09:54:02.082Z,99443.56
2023-05-23T09:59:07.552Z,99449.19
2023-05-23T10:04:09.885Z,99453.97
2023-05-23T10:09:18.026Z,99458.97
2023-05-23T10:14:19.762Z,99458.91
2023-05-23T10:19:27.496Z,99468.22
2023-05-23T10:24:29.915Z,99465.63
2023-05-23T10:29:33.966Z,99460.75
2023-05-23T10:34:59.751Z,99481.91
2023-05-23T10:40:07.718Z,99477.47
2023-05-23T10:45:17.959Z,99475.50
2023-05-23T10:50:33.350Z,99486.38
2023-05-23T10:55:36.771Z,99497.41
2023-05-23T11:00:38.839Z,99491.34
2023-05-23T11:05:48.280Z,99474.16
2023-05-23T11:10:53.505Z,99499.59
2023-05-23T11:15:55.241Z,99493.59
2023-05-23T11:21:00.970Z,99501.66
2023-05-23T11:26:02.646Z,99502.34
2023-05-23T11:31:04.360Z,99495.72
2023-05-23T11:36:07.277Z,99494.13
2023-05-23T11:41:10.773Z,99500.00
2023-05-23T11:46:12.537Z,99498.78
2023-05-23T11:51:15.698Z,99480.97
2023-05-23T11:56:17.979Z,99494.59
2023-05-23T12:01:19.627Z,99494.72
2023-05-23T12:06:23.653Z,99487.72
2023-05-23T12:11:26.715Z,99488.72
2023-05-23T12:16:31.992Z,99480.91
2023-05-23T12:21:47.972Z,99473.88
2023-05-23T12:26:55.251Z,99485.19
2023-05-23T12:31:59.485Z,99489.28
2023-05-23T12:42:09.903Z,99476.91
2023-05-23T12:47:11.821Z,99487.94
2023-05-23T12:52:13.693Z,99495.81
2023-05-23T12:57:15.479Z,99495.50
2023-05-23T13:02:17.131Z,99497.97
2023-05-23T13:07:18.858Z,99500.78
2023-05-23T13:12:21.033Z,99500.53
2023-05-23T13:17:22.831Z,99501.41
2023-05-23T13:22:24.666Z,99506.44
2023-05-23T13:27:26.386Z,99509.84
2023-05-23T13:32:28.408Z,99509.75
2023-05-23T13:37:30.120Z,99519.91
2023-05-23T13:42:32.023Z,99537.22
2023-05-23T13:47:33.718Z,99544.84
2023-05-23T13:52:35.986Z,99545.28
2023-05-23T13:57:37.718Z,99557.41
2023-05-23T14:02:39.405Z,99554.47
2023-05-23T14:07:41.459Z,99550.94
2023-05-23T14:12:43.164Z,99557.22
2023-05-23T14:17:44.884Z,99561.94
2023-05-23T14:22:46.660Z,99563.59
2023-05-23T14:27:48.377Z,99567.81
2023-05-23T14:32:50.205Z,99572.53
2023-05-23T14:37:51.902Z,99576.81
2023-05-23T14:42:53.702Z,99577.72
2023-05-23T14:47:55.407Z,99579.31
2023-05-23T14:52:57.203Z,99585.81
2023-05-23T14:57:58.942Z,99591.13
2023-05-23T15:03:00.628Z,99588.22
2023-05-23T15:08:03.977Z,99593.78
2023-05-23T15:13:06.601Z,99592.69
2023-05-23T15:18:10.135Z,99598.34
2023-05-23T15:23:11.851Z,99600.41
2023-05-23T15:28:14.259Z,99609.28
2023-05-23T15:33:16.154Z,99604.50
2023-05-23T15:38:19.849Z,99609.16
2023-05-23T15:43:21.969Z,99614.53
2023-05-23T15:48:23.760Z,99616.22
2023-05-23T15:53:25.474Z,99616.66
2023-05-23T15:58:27.377Z,99622.09
2023-05-23T16:03:29.180Z,99617.63
2023-05-23T16:08:30.900Z,99632.63
2023-05-23T16:13:32.626Z,99634.56
2023-05-23T16:18:34.335Z,99632.59
2023-05-23T16:23:36.001Z,99634.47
2023-05-23T16:28:37.718Z,99635.22
2023-05-23T16:33:39.420Z,99637.25
2023-05-23T16:38:41.081Z,99630.41
2023-05-23T16:43:42.777Z,99635.56
2023-05-23T16:48:44.489Z,99647.84
2023-05-23T16:53:46.236Z,99640.25
2023-05-23T16:58:47.913Z,99647.28
2023-05-23T17:03:49.828Z,99651.31
2023-05-23T17:08:51.526Z,99662.88
2023-05-23T17:13:53.200Z,99682.16
2023-05-23T17:18:54.901Z,99682.72
2023-05-23T17:23:56.810Z,99683.81
2023-05-23T17:28:58.485Z,99681.06
2023-05-23T17:34:00.242Z,99689.63
2023-05-23T17:39:01.936Z,99712.78
2023-05-23T17:44:03.815Z,99716.72
2023-05-23T17:49:05.640Z,99722.63
2023-05-23T17:54:07.518Z,99730.16
2023-05-23T17:59:09.540Z,99728.75
2023-05-23T18:04:11.229Z,99726.63
2023-05-23T18:09:12.905Z,99741.13
2023-05-23T18:14:14.569Z,99740.97
2023-05-23T18:19:16.298Z,99753.59
2023-05-23T18:24:18.032Z,99745.88
2023-05-23T18:29:20.236Z,99761.78
2023-05-23T18:34:23.050Z,99772.22
2023-05-23T18:39:24.750Z,99784.50
2023-05-23T18:44:26.469Z,99787.47
2023-05-23T18:49:28.104Z,99804.50
2023-05-23T18:54:29.781Z,99814.44
2023-05-23T18:59:31.428Z,99826.97
2023-05-23T19:04:33.198Z,99833.59
2023-05-23T19:09:34.885Z,99841.63
2023-05-23T19:14:36.567Z,99846.78
2023-05-23T19:19:38.326Z,99857.84
2023-05-23T19:24:40.042Z,99861.09
2023-05-23T19:29:42.498Z,99883.13
2023-05-23T19:34:44.222Z,99897.22
2023-05-23T19:39:46.050Z,99897.22
2023-05-23T19:44:47.681Z,99899.06
2023-05-23T19:49:49.352Z,99904.28
2023-05-23T19:54:51.688Z,99916.19
2023-05-23T19:59:53.358Z,99920.69
2023-05-23T20:04:55.002Z,99934.84
2023-05-23T20:09:56.664Z,99941.47
2023-05-23T20:14:58.325Z,99945.63
2023-05-23T20:20:00.050Z,99946.63
2023-05-23T20:25:01.812Z,99945.19
2023-05-23T20:30:04.114Z,99944.78
2023-05-23T20:35:06.328Z,99957.66
2023-05-23T20:40:09.686Z,99956.69
2023-05-23T20:45:11.878Z,99965.34
2023-05-23T20:50:14.763Z,99969.06
2023-05-23T20:55:17.019Z,99961.00
2023-05-23T21:00:19.055Z,99975.53
2023-05-23T21:05:20.713Z,99976.00
2023-05-23T21:10:22.485Z,99978.84
2023-05-23T21:15:24.152Z,99986.91
2023-05-23T21:20:26.318Z,99982.38
2023-05-23T21:25:27.999Z,99987.91
2023-05-23T21:30:29.701Z,99982.34
2023-05-23T21:35:31.380Z,99987.47
2023-05-23T21:40:33.010Z,99990.84
2023-05-23T21:45:34.664Z,99994.88
2023-05-23T21:50:36.331Z,99988.16
2023-05-23T21:55:37.992Z,99996.78
2023-05-23T22:00:40.256Z,99990.59
2023-05-23T22:05:42.039Z,99997.81
2023-05-23T22:10:44.177Z,99997.25
2023-05-23T22:15:46.206Z,99998.50
2023-05-23T22:20:48.356Z,100002.50
2023-05-23T22:25:49.998Z,100000.63
2023-05-23T22:30:51.929Z,99999.28
2023-05-23T22:35:53.702Z,100011.56
2023-05-23T22:40:55.664Z,100009.84
2023-05-23T22:45:57.892Z,100010.72
2023-05-23T22:51:02.973Z,99999.06
2023-05-23T22:56:04.910Z,100003.63
2023-05-23T23:01:06.736Z,99993.53
2023-05-23T23:06:09.493Z,100010.25
2023-05-23T23:11:11.172Z,99993.94
2023-05-23T23:16:13.184Z,99986.03
2023-05-23T23:21:14.862Z,99988.44
2023-05-23T23:26:16.541Z,99986.59
2023-05-23T23:31:18.280Z,99983.69
2023-05-23T23:36:19.986Z,99987.09
2023-05-23T23:41:22.873Z,99992.31
2023-05-23T23:46:24.576Z,99992.53
2023-05-23T23:51:26.231Z,99996.38
2023-05-23T23:56:27.985Z,100017.22
